sensor_id;sensor_type;location;lat;lon;timestamp;pressure;altitude;pressure_sealevel;temperature;humidity
70833;BME280;58452;59.418;17.962;2022-11-15T00:00:26;101700.84;;;6.17;93.88
70833;BME280;58452;59.418;17.962;2022-11-15T00:02:54;101721.66;;;6.27;94.17
70833;BME280;58452;59.418;17.962;2022-11-15T00:05:20;101726.03;;;6.25;94.09
70833;BME280;58452;59.418;17.962;2022-11-15T00:07:45;101725.31;;;6.23;93.79
70833;BME280;58452;59.418;17.962;2022-11-15T00:10:11;101721.53;;;6.14;93.74
70833;BME280;58452;59.418;17.962;2022-11-15T00:12:37;101696.97;;;5.96;93.72
70833;BME280;58452;59.418;17.962;2022-11-15T00:15:02;101700.19;;;6.00;92.85
70833;BME280;58452;59.418;17.962;2022-11-15T00:17:28;101721.25;;;6.05;93.28
70833;BME280;58452;59.418;17.962;2022-11-15T00:19:53;101717.44;;;6.12;92.92
70833;BME280;58452;59.418;17.962;2022-11-15T00:22:18;101721.56;;;6.28;92.97
70833;BME280;58452;59.418;17.962;2022-11-15T00:24:44;101714.88;;;6.12;92.57
70833;BME280;58452;59.418;17.962;2022-11-15T00:27:09;101702.81;;;5.98;92.96
70833;BME280;58452;59.418;17.962;2022-11-15T00:29:34;101697.16;;;5.93;93.56
70833;BME280;58452;59.418;17.962;2022-11-15T00:32:02;101706.59;;;5.93;93.99
70833;BME280;58452;59.418;17.962;2022-11-15T00:34:27;101698.91;;;5.93;93.68
70833;BME280;58452;59.418;17.962;2022-11-15T00:36:53;101686.81;;;5.95;93.93
70833;BME280;58452;59.418;17.962;2022-11-15T00:39:18;101694.88;;;6.03;93.95
70833;BME280;58452;59.418;17.962;2022-11-15T00:41:43;101691.22;;;5.93;93.77
70833;BME280;58452;59.418;17.962;2022-11-15T00:44:09;101702.56;;;6.03;93.89
70833;BME280;58452;59.418;17.962;2022-11-15T00:46:34;101708.34;;;6.06;93.02
70833;BME280;58452;59.418;17.962;2022-11-15T00:49:00;101715.47;;;6.01;92.81
70833;BME280;58452;59.418;17.962;2022-11-15T00:51:25;101709.53;;;6.01;92.43
70833;BME280;58452;59.418;17.962;2022-11-15T00:53:50;101696.97;;;5.96;92.99
70833;BME280;58452;59.418;17.962;2022-11-15T00:56:16;101698.00;;;6.08;93.31
70833;BME280;58452;59.418;17.962;2022-11-15T00:58:41;101693.78;;;6.07;92.78
70833;BME280;58452;59.418;17.962;2022-11-15T01:01:12;101712.03;;;6.16;92.70
70833;BME280;58452;59.418;17.962;2022-11-15T01:03:39;101711.56;;;6.24;92.67
70833;BME280;58452;59.418;17.962;2022-11-15T01:06:05;101712.69;;;6.34;92.75
70833;BME280;58452;59.418;17.962;2022-11-15T01:08:31;101714.50;;;6.46;91.76
70833;BME280;58452;59.418;17.962;2022-11-15T01:11:04;101718.19;;;6.56;90.71
70833;BME280;58452;59.418;17.962;2022-11-15T01:13:32;101718.66;;;6.63;89.86
70833;BME280;58452;59.418;17.962;2022-11-15T01:15:59;101704.81;;;6.65;89.29
70833;BME280;58452;59.418;17.962;2022-11-15T01:18:25;101714.53;;;6.60;88.67
70833;BME280;58452;59.418;17.962;2022-11-15T01:20:50;101699.31;;;6.43;88.36
70833;BME280;58452;59.418;17.962;2022-11-15T01:23:16;101714.50;;;6.46;88.15
70833;BME280;58452;59.418;17.962;2022-11-15T01:25:41;101717.38;;;6.42;87.57
70833;BME280;58452;59.418;17.962;2022-11-15T01:28:07;101722.25;;;6.02;89.07
70833;BME280;58452;59.418;17.962;2022-11-15T01:30:32;101717.44;;;6.12;89.46
70833;BME280;58452;59.418;17.962;2022-11-15T01:32:57;101723.84;;;6.19;89.37
70833;BME280;58452;59.418;17.962;2022-11-15T01:35:23;101717.06;;;6.18;89.26
70833;BME280;58452;59.418;17.962;2022-11-15T01:37:48;101716.72;;;6.38;89.23
70833;BME280;58452;59.418;17.962;2022-11-15T01:40:14;101724.06;;;6.44;88.69
70833;BME280;58452;59.418;17.962;2022-11-15T01:42:39;101722.31;;;6.30;88.85
70833;BME280;58452;59.418;17.962;2022-11-15T01:45:05;101723.06;;;6.03;90.44
70833;BME280;58452;59.418;17.962;2022-11-15T01:47:43;101719.72;;;6.16;90.51
70833;BME280;58452;59.418;17.962;2022-11-15T01:50:12;101711.72;;;6.07;90.90
70833;BME280;58452;59.418;17.962;2022-11-15T01:52:40;101706.16;;;6.14;90.78
70833;BME280;58452;59.418;17.962;2022-11-15T01:55:16;101721.94;;;6.36;90.62
70833;BME280;58452;59.418;17.962;2022-11-15T01:57:46;101709.84;;;6.38;89.90
70833;BME280;58452;59.418;17.962;2022-11-15T02:00:13;101698.59;;;6.41;89.33
70833;BME280;58452;59.418;17.962;2022-11-15T02:02:38;101701.06;;;6.43;89.15
70833;BME280;58452;59.418;17.962;2022-11-15T02:05:04;101709.75;;;6.54;88.81
70833;BME280;58452;59.418;17.962;2022-11-15T02:07:31;101702.88;;;6.55;88.53
70833;BME280;58452;59.418;17.962;2022-11-15T02:10:04;101707.38;;;6.65;88.42
70833;BME280;58452;59.418;17.962;2022-11-15T02:12:31;101701.59;;;6.62;88.21
70833;BME280;58452;59.418;17.962;2022-11-15T02:14:57;101707.47;;;6.64;88.27
70833;BME280;58452;59.418;17.962;2022-11-15T02:17:58;101711.03;;;6.33;88.49
70833;BME280;58452;59.418;17.962;2022-11-15T02:34:16;101716.88;;;6.21;87.78
70833;BME280;58452;59.418;17.962;2022-11-15T02:39:37;101727.88;;;6.23;87.58
70833;BME280;58452;59.418;17.962;2022-11-15T02:42:15;101727.13;;;6.21;87.57
70833;BME280;58452;59.418;17.962;2022-11-15T02:45:07;101727.84;;;6.09;86.97
70833;BME280;58452;59.418;17.962;2022-11-15T02:47:42;101728.94;;;6.05;87.04
70833;BME280;58452;59.418;17.962;2022-11-15T02:50:11;101729.13;;;6.02;87.53
70833;BME280;58452;59.418;17.962;2022-11-15T02:52:37;101726.25;;;5.92;87.96
70833;BME280;58452;59.418;17.962;2022-11-15T02:55:03;101729.78;;;6.05;87.92
70833;BME280;58452;59.418;17.962;2022-11-15T02:57:58;101736.00;;;6.01;87.95
70833;BME280;58452;59.418;17.962;2022-11-15T03:00:34;101742.03;;;5.84;88.25
70833;BME280;58452;59.418;17.962;2022-11-15T03:03:29;101743.75;;;5.84;88.41
70833;BME280;58452;59.418;17.962;2022-11-15T03:11:19;101742.19;;;5.97;87.58
70833;BME280;58452;59.418;17.962;2022-11-15T03:13:59;101740.53;;;5.96;87.33
70833;BME280;58452;59.418;17.962;2022-11-15T03:17:03;101735.25;;;5.83;87.39
70833;BME280;58452;59.418;17.962;2022-11-15T03:19:50;101734.69;;;5.78;87.53
70833;BME280;58452;59.418;17.962;2022-11-15T03:22:21;101733.50;;;5.84;87.54
70833;BME280;58452;59.418;17.962;2022-11-15T03:24:52;101729.22;;;5.84;87.56
70833;BME280;58452;59.418;17.962;2022-11-15T03:27:23;101727.44;;;5.86;87.55
70833;BME280;58452;59.418;17.962;2022-11-15T03:29:53;101741.72;;;5.91;87.24
70833;BME280;58452;59.418;17.962;2022-11-15T03:32:23;101739.63;;;5.97;87.34
70833;BME280;58452;59.418;17.962;2022-11-15T03:34:58;101742.19;;;5.97;86.97
70833;BME280;58452;59.418;17.962;2022-11-15T03:37:34;101748.69;;;6.03;87.20
70833;BME280;58452;59.418;17.962;2022-11-15T03:40:02;101745.03;;;6.07;86.96
70833;BME280;58452;59.418;17.962;2022-11-15T03:43:21;101742.09;;;5.99;86.85
70833;BME280;58452;59.418;17.962;2022-11-15T03:45:28;101751.22;;;5.88;87.79
70833;BME280;58452;59.418;17.962;2022-11-15T03:48:34;101747.09;;;5.86;87.78
70833;BME280;58452;59.418;17.962;2022-11-15T03:50:52;101741.28;;;5.82;87.99
70833;BME280;58452;59.418;17.962;2022-11-15T03:53:17;101748.41;;;5.77;88.60
70833;BME280;58452;59.418;17.962;2022-11-15T03:55:43;101745.13;;;5.75;88.67
70833;BME280;58452;59.418;17.962;2022-11-15T03:58:08;101737.25;;;5.78;88.86
70833;BME280;58452;59.418;17.962;2022-11-15T04:00:34;101737.81;;;5.83;88.26
70833;BME280;58452;59.418;17.962;2022-11-15T04:03:00;101735.84;;;5.88;88.51
70833;BME280;58452;59.418;17.962;2022-11-15T04:05:25;101742.28;;;5.96;88.02
70833;BME280;58452;59.418;17.962;2022-11-15T04:07:50;101735.59;;;5.77;88.65
70833;BME280;58452;59.418;17.962;2022-11-15T04:10:16;101755.72;;;5.83;88.88
70833;BME280;58452;59.418;17.962;2022-11-15T04:12:44;101745.84;;;5.77;89.00
70833;BME280;58452;59.418;17.962;2022-11-15T04:15:21;101751.22;;;5.88;88.41
70833;BME280;58452;59.418;17.962;2022-11-15T04:17:53;101756.34;;;5.88;88.50
70833;BME280;58452;59.418;17.962;2022-11-15T04:20:24;101755.06;;;5.96;88.28
70833;BME280;58452;59.418;17.962;2022-11-15T04:23:13;101759.94;;;5.84;87.91
70833;BME280;58452;59.418;17.962;2022-11-15T04:25:59;101763.41;;;5.83;88.04
70833;BME280;58452;59.418;17.962;2022-11-15T04:28:26;101764.78;;;5.75;88.28
70833;BME280;58452;59.418;17.962;2022-11-15T04:30:51;101762.88;;;5.78;88.09
70833;BME280;58452;59.418;17.962;2022-11-15T04:33:17;101763.78;;;5.77;87.87
70833;BME280;58452;59.418;17.962;2022-11-15T04:35:43;101770.19;;;5.84;87.65
70833;BME280;58452;59.418;17.962;2022-11-15T04:38:10;101765.97;;;5.83;87.77
70833;BME280;58452;59.418;17.962;2022-11-15T04:40:36;101770.22;;;5.69;87.80
70833;BME280;58452;59.418;17.962;2022-11-15T04:43:03;101769.75;;;5.62;87.89
70833;BME280;58452;59.418;17.962;2022-11-15T04:45:29;101760.31;;;5.63;88.04
70833;BME280;58452;59.418;17.962;2022-11-15T04:47:54;101759.19;;;5.68;88.18
70833;BME280;58452;59.418;17.962;2022-11-15T04:50:19;101757.00;;;5.76;88.06
70833;BME280;58452;59.418;17.962;2022-11-15T04:52:52;101760.75;;;5.86;87.57
70833;BME280;58452;59.418;17.962;2022-11-15T04:55:18;101768.78;;;5.95;86.82
70833;BME280;58452;59.418;17.962;2022-11-15T04:57:44;101761.94;;;5.95;87.07
70833;BME280;58452;59.418;17.962;2022-11-15T05:00:12;101759.72;;;5.73;87.35
70833;BME280;58452;59.418;17.962;2022-11-15T05:02:38;101759.06;;;5.85;87.53
70833;BME280;58452;59.418;17.962;2022-11-15T05:05:23;101772.75;;;5.84;87.63
70833;BME280;58452;59.418;17.962;2022-11-15T05:07:48;101771.28;;;5.80;87.23
70833;BME280;58452;59.418;17.962;2022-11-15T05:10:14;101770.72;;;5.75;87.91
70833;BME280;58452;59.418;17.962;2022-11-15T05:12:39;101773.19;;;5.77;87.97
70833;BME280;58452;59.418;17.962;2022-11-15T05:15:05;101769.66;;;5.79;87.93
70833;BME280;58452;59.418;17.962;2022-11-15T05:17:31;101778.72;;;5.85;87.65
70833;BME280;58452;59.418;17.962;2022-11-15T05:19:56;101771.72;;;5.88;87.48
70833;BME280;58452;59.418;17.962;2022-11-15T05:22:21;101778.66;;;5.86;87.19
70833;BME280;58452;59.418;17.962;2022-11-15T05:24:47;101773.84;;;5.80;87.43
70833;BME280;58452;59.418;17.962;2022-11-15T05:27:12;101768.53;;;5.83;87.59
70833;BME280;58452;59.418;17.962;2022-11-15T05:29:38;101768.00;;;5.94;87.67
70833;BME280;58452;59.418;17.962;2022-11-15T05:32:05;101766.22;;;5.95;87.15
70833;BME280;58452;59.418;17.962;2022-11-15T05:34:31;101777.59;;;5.91;87.21
70833;BME280;58452;59.418;17.962;2022-11-15T05:36:57;101764.59;;;5.94;87.17
70833;BME280;58452;59.418;17.962;2022-11-15T05:39:22;101765.75;;;5.88;87.43
70833;BME280;58452;59.418;17.962;2022-11-15T05:41:54;101763.41;;;5.83;86.78
70833;BME280;58452;59.418;17.962;2022-11-15T05:44:23;101779.31;;;5.90;86.91
70833;BME280;58452;59.418;17.962;2022-11-15T05:46:53;101776.75;;;5.74;87.22
70833;BME280;58452;59.418;17.962;2022-11-15T05:49:22;101787.91;;;5.89;87.01
70833;BME280;58452;59.418;17.962;2022-11-15T05:51:49;101784.09;;;5.80;87.55
70833;BME280;58452;59.418;17.962;2022-11-15T05:54:16;101795.66;;;5.87;87.61
70833;BME280;58452;59.418;17.962;2022-11-15T05:56:41;101793.59;;;5.78;87.15
70833;BME280;58452;59.418;17.962;2022-11-15T05:59:08;101795.66;;;5.87;87.03
70833;BME280;58452;59.418;17.962;2022-11-15T06:01:34;101792.59;;;5.81;87.30
70833;BME280;58452;59.418;17.962;2022-11-15T06:03:59;101797.25;;;5.90;86.64
70833;BME280;58452;59.418;17.962;2022-11-15T06:06:26;101804.59;;;5.96;86.48
70833;BME280;58452;59.418;17.962;2022-11-15T06:08:52;101800.53;;;5.92;86.63
70833;BME280;58452;59.418;17.962;2022-11-15T06:11:17;101810.53;;;5.97;86.04
70833;BME280;58452;59.418;17.962;2022-11-15T06:13:43;101812.84;;;5.85;85.88
70833;BME280;58452;59.418;17.962;2022-11-15T06:16:08;101812.84;;;5.85;86.19
70833;BME280;58452;59.418;17.962;2022-11-15T06:18:34;101812.19;;;5.66;86.41
70833;BME280;58452;59.418;17.962;2022-11-15T06:21:00;101818.75;;;5.72;86.42
70833;BME280;58452;59.418;17.962;2022-11-15T06:23:26;101819.94;;;5.80;85.90
70833;BME280;58452;59.418;17.962;2022-11-15T06:25:51;101821.44;;;5.69;85.10
70833;BME280;58452;59.418;17.962;2022-11-15T06:28:17;101823.94;;;5.70;84.64
70833;BME280;58452;59.418;17.962;2022-11-15T06:30:42;101827.41;;;5.54;84.85
70833;BME280;58452;59.418;17.962;2022-11-15T06:33:08;101816.50;;;5.66;84.86
70833;BME280;58452;59.418;17.962;2022-11-15T06:35:35;101829.72;;;5.58;83.65
70833;BME280;58452;59.418;17.962;2022-11-15T06:38:06;101824.59;;;5.58;83.76
70833;BME280;58452;59.418;17.962;2022-11-15T06:40:34;101818.06;;;5.68;82.96
70833;BME280;58452;59.418;17.962;2022-11-15T06:42:59;101828.88;;;5.73;82.61
70833;BME280;58452;59.418;17.962;2022-11-15T06:45:25;101827.81;;;5.62;82.29
70833;BME280;58452;59.418;17.962;2022-11-15T06:47:51;101828.22;;;5.70;82.32
70833;BME280;58452;59.418;17.962;2022-11-15T06:50:17;101832.19;;;5.75;82.75
70833;BME280;58452;59.418;17.962;2022-11-15T06:52:43;101838.81;;;5.79;83.22
70833;BME280;58452;59.418;17.962;2022-11-15T06:55:08;101827.06;;;5.75;83.54
70833;BME280;58452;59.418;17.962;2022-11-15T06:57:40;101834.66;;;5.77;82.07
70833;BME280;58452;59.418;17.962;2022-11-15T07:00:11;101797.84;;;5.64;82.34
70833;BME280;58452;59.418;17.962;2022-11-15T07:02:37;101825.81;;;5.82;82.23
70833;BME280;58452;59.418;17.962;2022-11-15T07:05:02;101835.91;;;5.85;82.29
70833;BME280;58452;59.418;17.962;2022-11-15T07:07:28;101810.72;;;5.78;81.67
70833;BME280;58452;59.418;17.962;2022-11-15T07:09:55;101840.94;;;6.03;81.35
70833;BME280;58452;59.418;17.962;2022-11-15T07:12:20;101809.25;;;5.89;80.52
70833;BME280;58452;59.418;17.962;2022-11-15T07:14:46;101843.50;;;6.03;80.67
70833;BME280;58452;59.418;17.962;2022-11-15T07:17:11;101829.91;;;5.86;80.67
70833;BME280;58452;59.418;17.962;2022-11-15T07:19:36;101862.03;;;6.08;80.46
70833;BME280;58452;59.418;17.962;2022-11-15T07:22:02;101826.56;;;5.84;80.50
70833;BME280;58452;59.418;17.962;2022-11-15T07:24:27;101846.81;;;6.05;80.73
70833;BME280;58452;59.418;17.962;2022-11-15T07:26:53;101796.16;;;5.78;80.35
70833;BME280;58452;59.418;17.962;2022-11-15T07:29:18;101852.72;;;6.21;80.03
70833;BME280;58452;59.418;17.962;2022-11-15T07:31:43;101849.00;;;6.26;79.57
70833;BME280;58452;59.418;17.962;2022-11-15T07:34:09;101845.41;;;6.15;79.88
70833;BME280;58452;59.418;17.962;2022-11-15T07:36:35;101848.69;;;6.17;79.85
70833;BME280;58452;59.418;17.962;2022-11-15T07:39:00;101846.69;;;6.22;79.59
70833;BME280;58452;59.418;17.962;2022-11-15T07:41:25;101843.56;;;6.17;79.40
70833;BME280;58452;59.418;17.962;2022-11-15T07:43:51;101853.13;;;6.29;79.22
70833;BME280;58452;59.418;17.962;2022-11-15T07:46:17;101858.72;;;6.35;78.72
70833;BME280;58452;59.418;17.962;2022-11-15T07:48:43;101859.56;;;6.36;78.87
70833;BME280;58452;59.418;17.962;2022-11-15T07:51:11;101851.13;;;6.34;78.68
70833;BME280;58452;59.418;17.962;2022-11-15T07:53:37;101861.25;;;6.21;79.48
70833;BME280;58452;59.418;17.962;2022-11-15T07:56:06;101855.66;;;6.15;79.79
70833;BME280;58452;59.418;17.962;2022-11-15T07:58:31;101858.94;;;6.17;79.74
70833;BME280;58452;59.418;17.962;2022-11-15T08:00:57;101865.38;;;6.24;79.60
70833;BME280;58452;59.418;17.962;2022-11-15T08:03:22;101867.03;;;6.25;79.37
70833;BME280;58452;59.418;17.962;2022-11-15T08:05:52;101865.91;;;5.99;80.13
70833;BME280;58452;59.418;17.962;2022-11-15T08:08:17;101865.66;;;5.88;81.08
70833;BME280;58452;59.418;17.962;2022-11-15T08:10:43;101875.19;;;5.86;80.90
70833;BME280;58452;59.418;17.962;2022-11-15T08:13:10;101867.91;;;5.94;81.40
70833;BME280;58452;59.418;17.962;2022-11-15T08:15:36;101878.47;;;6.04;81.16
70833;BME280;58452;59.418;17.962;2022-11-15T08:18:05;101869.91;;;5.89;81.10
70833;BME280;58452;59.418;17.962;2022-11-15T08:20:31;101876.97;;;5.84;81.54
70833;BME280;58452;59.418;17.962;2022-11-15T08:22:58;101871.19;;;5.80;81.76
70833;BME280;58452;59.418;17.962;2022-11-15T08:25:25;101887.00;;;5.88;81.32
70833;BME280;58452;59.418;17.962;2022-11-15T08:27:56;101881.16;;;5.86;80.88
70833;BME280;58452;59.418;17.962;2022-11-15T08:30:22;101888.84;;;5.86;80.87
70833;BME280;58452;59.418;17.962;2022-11-15T08:32:48;101881.16;;;5.86;80.50
70833;BME280;58452;59.418;17.962;2022-11-15T08:35:14;101878.31;;;5.75;80.83
70833;BME280;58452;59.418;17.962;2022-11-15T08:37:39;101886.28;;;5.86;80.82
70833;BME280;58452;59.418;17.962;2022-11-15T08:40:05;101885.72;;;5.80;80.77
70833;BME280;58452;59.418;17.962;2022-11-15T08:42:31;101888.94;;;5.83;80.58
70833;BME280;58452;59.418;17.962;2022-11-15T08:44:56;101898.78;;;5.75;81.31
70833;BME280;58452;59.418;17.962;2022-11-15T08:47:22;101878.31;;;5.75;81.02
70833;BME280;58452;59.418;17.962;2022-11-15T08:49:47;101891.00;;;5.77;80.89
70833;BME280;58452;59.418;17.962;2022-11-15T08:52:13;101895.97;;;5.80;80.46
70833;BME280;58452;59.418;17.962;2022-11-15T08:54:39;101890.19;;;5.76;81.33
70833;BME280;58452;59.418;17.962;2022-11-15T08:57:04;101895.16;;;5.79;80.62
70833;BME280;58452;59.418;17.962;2022-11-15T08:59:30;101900.94;;;5.83;80.97
70833;BME280;58452;59.418;17.962;2022-11-15T09:01:55;101897.63;;;5.81;80.78
70833;BME280;58452;59.418;17.962;2022-11-15T09:04:20;101898.78;;;5.75;80.58
70833;BME280;58452;59.418;17.962;2022-11-15T09:06:46;101897.78;;;5.78;79.82
70833;BME280;58452;59.418;17.962;2022-11-15T09:09:11;101910.53;;;5.79;78.48
70833;BME280;58452;59.418;17.962;2022-11-15T09:11:37;101895.47;;;5.73;78.94
70833;BME280;58452;59.418;17.962;2022-11-15T09:14:02;101907.22;;;5.77;78.33
70833;BME280;58452;59.418;17.962;2022-11-15T09:16:28;101908.09;;;5.94;77.61
70833;BME280;58452;59.418;17.962;2022-11-15T09:18:55;101920.72;;;5.97;77.65
70833;BME280;58452;59.418;17.962;2022-11-15T09:21:20;101921.78;;;5.93;77.77
70833;BME280;58452;59.418;17.962;2022-11-15T09:23:46;101917.56;;;6.07;77.14
70833;BME280;58452;59.418;17.962;2022-11-15T09:26:11;101906.91;;;5.99;77.91
70833;BME280;58452;59.418;17.962;2022-11-15T09:28:36;101913.09;;;6.11;77.83
70833;BME280;58452;59.418;17.962;2022-11-15T09:31:04;101911.78;;;6.04;77.95
70833;BME280;58452;59.418;17.962;2022-11-15T09:33:30;101918.81;;;6.16;77.66
70833;BME280;58452;59.418;17.962;2022-11-15T09:36:04;101918.16;;;6.12;78.10
70833;BME280;58452;59.418;17.962;2022-11-15T09:38:30;101929.19;;;6.28;78.12
70833;BME280;58452;59.418;17.962;2022-11-15T09:47:28;101935.09;;;6.15;78.05
70833;BME280;58452;59.418;17.962;2022-11-15T09:49:57;101936.75;;;6.00;79.42
70833;BME280;58452;59.418;17.962;2022-11-15T09:52:24;101946.84;;;6.19;78.88
70833;BME280;58452;59.418;17.962;2022-11-15T09:54:51;101947.75;;;6.18;79.01
70833;BME280;58452;59.418;17.962;2022-11-15T09:57:33;101938.16;;;6.06;78.67
70833;BME280;58452;59.418;17.962;2022-11-15T10:02:55;101933.78;;;6.08;76.63
70833;BME280;58452;59.418;17.962;2022-11-15T10:05:24;101940.31;;;5.98;76.05
70833;BME280;58452;59.418;17.962;2022-11-15T10:08:03;101942.47;;;6.05;75.75
70833;BME280;58452;59.418;17.962;2022-11-15T10:10:42;101940.31;;;5.98;75.70
70833;BME280;58452;59.418;17.962;2022-11-15T10:13:16;101932.88;;;6.09;75.83
70833;BME280;58452;59.418;17.962;2022-11-15T10:15:45;101934.34;;;6.13;75.24
70833;BME280;58452;59.418;17.962;2022-11-15T10:18:19;101938.16;;;6.06;75.25
70833;BME280;58452;59.418;17.962;2022-11-15T10:21:07;101924.25;;;6.10;74.98
70833;BME280;58452;59.418;17.962;2022-11-15T10:23:38;101925.75;;;6.14;74.74
70833;BME280;58452;59.418;17.962;2022-11-15T10:26:08;101929.63;;;6.21;74.91
70833;BME280;58452;59.418;17.962;2022-11-15T10:28:36;101933.34;;;6.31;74.97
70833;BME280;58452;59.418;17.962;2022-11-15T10:31:01;101928.06;;;6.34;74.80
70833;BME280;58452;59.418;17.962;2022-11-15T10:33:34;101928.13;;;6.17;75.27
70833;BME280;58452;59.418;17.962;2022-11-15T10:41:21;101938.91;;;6.08;73.82
70833;BME280;58452;59.418;17.962;2022-11-15T10:44:22;101938.81;;;6.25;74.30
70833;BME280;58452;59.418;17.962;2022-11-15T10:49:27;101933.50;;;6.28;73.62
70833;BME280;58452;59.418;17.962;2022-11-15T10:54:28;101931.34;;;6.36;73.69
70833;BME280;58452;59.418;17.962;2022-11-15T10:56:56;101924.06;;;6.44;73.88
70833;BME280;58452;59.418;17.962;2022-11-15T10:59:31;101911.00;;;6.33;73.07
70833;BME280;58452;59.418;17.962;2022-11-15T11:01:59;101912.50;;;6.37;72.96
70833;BME280;58452;59.418;17.962;2022-11-15T11:04:24;101924.88;;;6.45;73.13
70833;BME280;58452;59.418;17.962;2022-11-15T11:06:58;101927.19;;;6.49;72.99
70833;BME280;58452;59.418;17.962;2022-11-15T11:09:33;101920.81;;;6.56;72.89
70833;BME280;58452;59.418;17.962;2022-11-15T11:11:59;101921.97;;;6.51;72.46
70833;BME280;58452;59.418;17.962;2022-11-15T11:14:27;101928.28;;;6.45;71.95
70833;BME280;58452;59.418;17.962;2022-11-15T11:22:48;101937.97;;;6.40;73.21
70833;BME280;58452;59.418;17.962;2022-11-15T11:25:42;101935.00;;;6.32;72.41
70833;BME280;58452;59.418;17.962;2022-11-15T11:52:32;101938.63;;;6.28;72.66
70833;BME280;58452;59.418;17.962;2022-11-15T11:55:15;101938.31;;;6.34;73.09
70833;BME280;58452;59.418;17.962;2022-11-15T12:04:11;101931.53;;;6.33;72.82
70833;BME280;58452;59.418;17.962;2022-11-15T12:06:49;101933.91;;;6.36;73.54
70833;BME280;58452;59.418;17.962;2022-11-15T12:09:41;101932.66;;;6.43;72.87
70833;BME280;58452;59.418;17.962;2022-11-15T12:15:04;101927.03;;;6.36;73.13
70833;BME280;58452;59.418;17.962;2022-11-15T12:17:37;101930.69;;;6.32;73.31
70833;BME280;58452;59.418;17.962;2022-11-15T12:20:14;101937.78;;;6.43;73.08
70833;BME280;58452;59.418;17.962;2022-11-15T12:22:46;101919.59;;;6.32;73.30
70833;BME280;58452;59.418;17.962;2022-11-15T12:25:20;101935.31;;;6.42;73.31
70833;BME280;58452;59.418;17.962;2022-11-15T12:28:11;101931.94;;;6.41;73.19
70833;BME280;58452;59.418;17.962;2022-11-15T12:30:46;101916.50;;;6.27;73.39
70833;BME280;58452;59.418;17.962;2022-11-15T12:33:41;101939.94;;;6.35;73.32
70833;BME280;58452;59.418;17.962;2022-11-15T12:36:11;101945.09;;;6.19;74.18
70833;BME280;58452;59.418;17.962;2022-11-15T12:38:59;101937.97;;;6.40;74.08
70833;BME280;58452;59.418;17.962;2022-11-15T12:41:30;101932.84;;;6.40;74.13
70833;BME280;58452;59.418;17.962;2022-11-15T12:43:56;101928.34;;;6.44;73.83
70833;BME280;58452;59.418;17.962;2022-11-15T12:59:53;101932.19;;;6.21;72.55
70833;BME280;58452;59.418;17.962;2022-11-15T13:02:25;101940.81;;;6.20;72.59
70833;BME280;58452;59.418;17.962;2022-11-15T13:04:54;101933.03;;;6.06;72.28
70833;BME280;58452;59.418;17.962;2022-11-15T13:10:28;101939.88;;;6.21;72.75
70833;BME280;58452;59.418;17.962;2022-11-15T13:17:48;101930.63;;;6.03;73.13
70833;BME280;58452;59.418;17.962;2022-11-15T13:22:53;101921.19;;;5.72;73.61
70833;BME280;58452;59.418;17.962;2022-11-15T13:30:49;101927.50;;;5.98;73.04
70833;BME280;58452;59.418;17.962;2022-11-15T13:33:28;101922.91;;;5.71;74.07
70833;BME280;58452;59.418;17.962;2022-11-15T13:35:58;101923.88;;;5.69;73.73
70833;BME280;58452;59.418;17.962;2022-11-15T13:40:50;101916.47;;;5.64;73.98
70833;BME280;58452;59.418;17.962;2022-11-15T13:46:21;101931.16;;;5.76;74.04
70833;BME280;58452;59.418;17.962;2022-11-15T13:48:53;101931.94;;;5.78;74.15
70833;BME280;58452;59.418;17.962;2022-11-15T13:56:38;101943.88;;;5.62;74.27
70833;BME280;58452;59.418;17.962;2022-11-15T13:59:14;101949.41;;;5.55;74.57
70833;BME280;58452;59.418;17.962;2022-11-15T14:01:42;101953.22;;;5.63;74.91
70833;BME280;58452;59.418;17.962;2022-11-15T14:04:11;101952.28;;;5.49;75.05
70833;BME280;58452;59.418;17.962;2022-11-15T14:06:45;101949.00;;;5.62;74.76
70833;BME280;58452;59.418;17.962;2022-11-15T14:09:38;101972.13;;;5.61;75.00
70833;BME280;58452;59.418;17.962;2022-11-15T14:12:33;101962.63;;;5.63;75.31
70833;BME280;58452;59.418;17.962;2022-11-15T14:15:18;101958.28;;;5.65;75.44
70833;BME280;58452;59.418;17.962;2022-11-15T14:17:46;101951.56;;;5.62;74.57
70833;BME280;58452;59.418;17.962;2022-11-15T14:22:54;101973.09;;;5.58;75.56
70833;BME280;58452;59.418;17.962;2022-11-15T14:25:24;101980.38;;;5.66;75.22
70833;BME280;58452;59.418;17.962;2022-11-15T14:28:28;101972.47;;;5.70;75.17
70833;BME280;58452;59.418;17.962;2022-11-15T14:30:56;101974.94;;;5.56;75.72
70833;BME280;58452;59.418;17.962;2022-11-15T14:33:36;101980.38;;;5.50;75.84
70833;BME280;58452;59.418;17.962;2022-11-15T14:36:10;101974.59;;;5.62;75.50
70833;BME280;58452;59.418;17.962;2022-11-15T14:38:36;101969.25;;;5.67;75.26
70833;BME280;58452;59.418;17.962;2022-11-15T14:41:01;101967.69;;;5.64;75.09
70833;BME280;58452;59.418;17.962;2022-11-15T14:43:27;101949.94;;;5.44;76.07
70833;BME280;58452;59.418;17.962;2022-11-15T14:45:52;101970.31;;;5.63;75.98
70833;BME280;58452;59.418;17.962;2022-11-15T14:48:17;101968.41;;;5.66;75.51
70833;BME280;58452;59.418;17.962;2022-11-15T14:50:43;101967.84;;;5.61;76.54
70833;BME280;58452;59.418;17.962;2022-11-15T14:53:15;101967.97;;;5.58;76.03
70833;BME280;58452;59.418;17.962;2022-11-15T14:55:41;101970.25;;;5.64;76.02
70833;BME280;58452;59.418;17.962;2022-11-15T14:58:06;101968.41;;;5.66;75.77
70833;BME280;58452;59.418;17.962;2022-11-15T15:00:36;101972.47;;;5.70;75.99
70833;BME280;58452;59.418;17.962;2022-11-15T15:03:03;101974.16;;;5.71;75.40
70833;BME280;58452;59.418;17.962;2022-11-15T15:07:57;101969.19;;;5.68;75.30